Time;durP1;ratioP1;P1;durP2;ratioP2;P2;SDS_P1;SDS_P2;PMS_P1;PMS_P2;Temp;Humidity;BMP_temperature;BMP_pressure;BME280_temperature;BME280_humidity;BME280_pressure;Samples;Min_cycle;Max_cycle;Signal;HPM_P1;HPM_P2
2022/03/17 00:02:08;;;;;;;26.77;17.50;;;10.70;99.90;;;;;;4985933;28;20054;-75
2022/03/17 00:04:34;;;;;;;25.92;18.30;;;10.80;99.90;;;;;;4933446;28;168230;-74
2022/03/17 00:07:01;;;;;;;25.08;17.35;;;10.80;99.90;;;;;;4982979;28;20034;-75
2022/03/17 00:09:27;;;;;;;25.75;18.58;;;10.80;99.90;;;;;;4942547;28;267779;-75
2022/03/17 00:11:53;;;;;;;30.83;18.05;;;10.80;99.90;;;;;;4972653;28;20062;-75
2022/03/17 00:14:20;;;;;;;25.42;18.33;;;10.80;99.90;;;;;;4950885;28;257378;-70
2022/03/17 00:16:47;;;;;;;27.25;19.15;;;10.70;99.90;;;;;;4993709;28;20062;-75
2022/03/17 00:19:13;;;;;;;29.13;18.90;;;10.80;99.90;;;;;;4955405;28;164293;-75
2022/03/17 00:21:39;;;;;;;29.55;18.40;;;10.80;99.90;;;;;;4943814;28;20073;-75
2022/03/17 00:24:07;;;;;;;27.02;18.52;;;10.70;99.90;;;;;;4966360;28;256085;-75
2022/03/17 00:26:34;;;;;;;27.33;18.45;;;10.70;99.90;;;;;;4935024;28;20045;-74
2022/03/17 00:29:02;;;;;;;27.02;18.83;;;10.80;99.90;;;;;;4949831;28;267760;-75
2022/03/17 00:31:29;;;;;;;28.00;18.40;;;10.80;99.90;;;;;;4940461;28;20046;-75
2022/03/17 00:33:55;;;;;;;26.63;19.33;;;10.70;99.90;;;;;;4996260;28;271797;-75
2022/03/17 00:36:22;;;;;;;28.05;18.95;;;10.70;99.90;;;;;;4923272;28;20039;-75
2022/03/17 00:38:48;;;;;;;27.40;19.05;;;10.70;99.90;;;;;;4967339;28;256300;-76
2022/03/17 00:41:14;;;;;;;28.38;20.02;;;10.70;99.90;;;;;;4966491;28;20050;-76
2022/03/17 00:43:40;;;;;;;28.30;18.88;;;10.70;99.90;;;;;;4987301;28;20049;-76
2022/03/17 00:46:06;;;;;;;30.33;18.85;;;10.70;99.90;;;;;;4945235;28;212757;-76
2022/03/17 00:48:32;;;;;;;28.55;19.30;;;10.70;99.90;;;;;;4984305;28;20046;-75
2022/03/17 00:50:58;;;;;;;28.35;19.45;;;10.70;99.90;;;;;;4947274;28;44788;-76
2022/03/17 00:53:24;;;;;;;27.63;19.35;;;10.70;99.90;;;;;;4988722;28;20066;-76
2022/03/17 00:55:51;;;;;;;29.60;20.17;;;10.70;99.90;;;;;;4955321;28;164612;-74
2022/03/17 00:58:17;;;;;;;28.50;19.85;;;10.70;99.90;;;;;;4984106;28;20057;-74
2022/03/17 01:00:43;;;;;;;27.98;20.52;;;10.70;99.90;;;;;;4952692;28;258902;-74
2022/03/17 01:03:09;;;;;;;28.70;19.80;;;10.60;99.90;;;;;;4985977;28;20146;-74
2022/03/17 01:05:36;;;;;;;26.05;19.08;;;10.60;99.90;;;;;;4921329;28;134461;-75
2022/03/17 01:08:02;;;;;;;28.55;19.58;;;10.70;99.90;;;;;;4984181;28;20050;-77
2022/03/17 01:10:29;;;;;;;29.52;20.10;;;10.70;99.90;;;;;;4960173;28;261214;-71
2022/03/17 01:12:56;;;;;;;29.88;20.80;;;10.60;99.90;;;;;;4986615;28;20061;-73
2022/03/17 01:15:22;;;;;;;26.50;18.80;;;10.70;99.90;;;;;;4965937;28;53329;-73
2022/03/17 01:17:49;;;;;;;28.25;20.55;;;10.70;99.90;;;;;;4986669;28;20042;-73
2022/03/17 01:20:15;;;;;;;26.95;19.63;;;10.60;99.90;;;;;;4955402;28;103355;-74
2022/03/17 01:22:41;;;;;;;30.67;20.88;;;10.60;99.90;;;;;;4978737;28;20054;-73
2022/03/17 01:25:08;;;;;;;30.88;20.10;;;10.60;99.90;;;;;;4948087;28;214950;-72
2022/03/17 01:27:34;;;;;;;29.05;20.38;;;10.60;99.90;;;;;;4989376;28;20054;-73
2022/03/17 01:30:02;;;;;;;30.08;19.98;;;10.60;99.90;;;;;;4934851;28;244881;-72
2022/03/17 01:32:32;;;;;;;28.70;21.20;;;10.60;99.90;;;;;;4971121;28;20054;-72
2022/03/17 01:34:59;;;;;;;28.70;20.15;;;10.60;99.90;;;;;;4929791;28;239153;-73
2022/03/17 01:37:25;;;;;;;30.90;20.90;;;10.60;99.90;;;;;;4957823;28;20065;-72
2022/03/17 01:39:53;;;;;;;29.48;20.05;;;10.50;99.90;;;;;;4941318;28;256808;-73
2022/03/17 01:42:19;;;;;;;29.45;20.40;;;10.50;99.90;;;;;;4997387;28;20058;-71
2022/03/17 01:44:45;;;;;;;29.75;20.30;;;10.50;99.90;;;;;;4947194;28;146858;-73
2022/03/17 01:47:27;;;;;;;28.52;20.02;;;10.50;99.90;;;;;;4994851;28;20447;-73
2022/03/17 01:50:17;;;;;;;29.80;19.95;;;10.50;99.90;;;;;;4936342;28;21590;-73
2022/03/17 01:52:44;;;;;;;29.15;20.73;;;10.50;99.90;;;;;;4963428;28;20045;-72
2022/03/17 01:55:12;;;;;;;30.75;21.23;;;10.50;99.90;;;;;;4938434;28;184559;-73
2022/03/17 01:57:39;;;;;;;31.45;20.38;;;10.50;99.90;;;;;;4973472;28;20058;-72
2022/03/17 02:00:08;;;;;;;30.77;21.00;;;10.50;99.90;;;;;;4934294;28;259012;-73
2022/03/17 02:02:34;;;;;;;27.83;20.23;;;10.50;99.90;;;;;;4972481;28;20054;-73
2022/03/17 02:05:03;;;;;;;29.98;21.60;;;10.50;99.90;;;;;;4916433;28;213200;-72
2022/03/17 02:07:29;;;;;;;28.35;20.90;;;10.50;99.90;;;;;;4964789;28;20046;-73
2022/03/17 02:09:55;;;;;;;30.95;21.60;;;10.50;99.90;;;;;;4935519;28;267351;-73
2022/03/17 02:15:08;;;;;;;29.63;21.45;;;10.50;99.90;;;;;;4930899;28;183394;-73
2022/03/17 02:17:39;;;;;;;30.17;21.75;;;10.50;99.90;;;;;;4953818;28;20065;-73
2022/03/17 02:20:11;;;;;;;28.23;21.48;;;10.50;99.90;;;;;;4938689;28;265637;-73
2022/03/17 02:22:43;;;;;;;31.65;22.08;;;10.40;99.90;;;;;;4989561;28;20054;-72
2022/03/17 02:27:53;;;;;;;30.08;21.85;;;10.40;99.90;;;;;;4991114;28;20431;-72
2022/03/17 02:30:22;;;;;;;29.92;21.08;;;10.40;99.90;;;;;;4948072;28;20507;-73
2022/03/17 02:32:49;;;;;;;29.50;21.73;;;10.40;99.90;;;;;;4982223;28;20176;-73
2022/03/17 02:35:22;;;;;;;30.45;22.08;;;10.40;99.90;;;;;;4948371;28;244126;-72
2022/03/17 02:37:51;;;;;;;30.92;21.98;;;10.40;99.90;;;;;;4965602;28;20065;-72
2022/03/17 02:40:18;;;;;;;28.35;21.08;;;10.40;99.90;;;;;;4934029;28;141929;-73
2022/03/17 02:42:45;;;;;;;32.58;21.58;;;10.40;99.90;;;;;;4988839;28;20062;-73
2022/03/17 02:45:11;;;;;;;33.38;22.65;;;10.40;99.90;;;;;;4928951;28;116201;-72
2022/03/17 02:47:39;;;;;;;29.83;20.90;;;10.40;99.90;;;;;;4970335;28;20062;-72
2022/03/17 02:50:07;;;;;;;29.02;21.33;;;10.40;99.90;;;;;;4937504;28;52101;-73
2022/03/17 02:52:34;;;;;;;30.67;21.52;;;10.40;99.90;;;;;;4982489;28;20459;-73
2022/03/17 02:55:00;;;;;;;29.77;21.83;;;10.40;99.90;;;;;;4937688;28;266679;-74
2022/03/17 02:57:26;;;;;;;31.58;21.25;;;10.40;99.90;;;;;;4967922;28;20080;-73
2022/03/17 02:59:52;;;;;;;28.50;22.25;;;10.40;99.90;;;;;;4931691;28;217829;-73
2022/03/17 03:02:22;;;;;;;30.60;22.38;;;10.40;99.90;;;;;;4975367;28;20042;-73
2022/03/17 03:04:49;;;;;;;32.40;22.63;;;10.40;99.90;;;;;;4924929;28;142843;-73
2022/03/17 03:07:15;;;;;;;28.75;21.85;;;10.40;99.90;;;;;;4964459;28;20631;-74
2022/03/17 03:09:43;;;;;;;29.08;21.58;;;10.40;99.90;;;;;;4941333;28;274797;-71
2022/03/17 03:12:09;;;;;;;31.08;22.25;;;10.40;99.90;;;;;;4974285;28;20058;-72
2022/03/17 03:14:36;;;;;;;30.50;22.67;;;10.40;99.90;;;;;;4940109;28;156810;-72
2022/03/17 03:17:03;;;;;;;30.92;22.13;;;10.40;99.90;;;;;;4968797;28;20397;-72
2022/03/17 03:19:29;;;;;;;30.08;21.67;;;10.40;99.90;;;;;;4932376;28;198585;-71
2022/03/17 03:21:55;;;;;;;32.72;22.90;;;10.40;99.90;;;;;;4982317;28;20518;-72
2022/03/17 03:24:21;;;;;;;31.95;22.67;;;10.40;99.90;;;;;;4926151;28;243081;-72
2022/03/17 03:26:48;;;;;;;28.67;22.20;;;10.40;99.90;;;;;;4971981;28;20046;-73
2022/03/17 03:29:21;;;;;;;29.63;22.92;;;10.40;99.90;;;;;;4977661;28;61046;-72
2022/03/17 03:31:53;;;;;;;31.83;23.55;;;10.40;99.90;;;;;;4923824;28;20065;-72
2022/03/17 03:34:20;;;;;;;31.48;22.70;;;10.40;99.90;;;;;;4957579;28;249719;-70
2022/03/17 03:39:33;;;;;;;29.55;22.38;;;10.50;99.90;;;;;;4936606;28;214414;-74
2022/03/17 03:42:00;;;;;;;33.83;23.15;;;10.50;99.90;;;;;;4965344;28;20050;-72
2022/03/17 03:44:26;;;;;;;34.13;24.33;;;10.50;99.90;;;;;;4943080;28;179519;-73
2022/03/17 03:46:52;;;;;;;30.70;23.98;;;10.50;99.90;;;;;;4981965;28;20050;-73
2022/03/17 03:49:20;;;;;;;30.83;21.60;;;10.50;99.90;;;;;;4954529;28;260872;-73
2022/03/17 03:51:46;;;;;;;32.83;23.90;;;10.60;99.90;;;;;;4960911;28;20038;-73
2022/03/17 03:54:18;;;;;;;33.45;23.92;;;10.60;99.90;;;;;;4977221;28;81202;-73
2022/03/17 03:56:46;;;;;;;29.85;22.52;;;10.60;99.90;;;;;;4947034;28;20101;-73
2022/03/17 03:59:23;;;;;;;30.35;22.70;;;10.60;99.90;;;;;;4971046;28;75606;-74
2022/03/17 04:01:51;;;;;;;35.75;24.35;;;10.60;99.90;;;;;;4942845;28;20033;-73
2022/03/17 04:04:19;;;;;;;33.30;24.30;;;10.60;99.90;;;;;;4947803;28;141409;-72
2022/03/17 04:06:54;;;;;;;30.92;23.38;;;10.60;99.90;;;;;;4971373;28;20038;-73
2022/03/17 04:09:25;;;;;;;31.42;24.63;;;10.60;99.90;;;;;;4967002;28;33967;-73
2022/03/17 04:11:52;;;;;;;35.58;25.92;;;10.50;99.90;;;;;;4966117;28;20058;-74
2022/03/17 04:14:19;;;;;;;33.00;26.42;;;10.50;99.90;;;;;;4957580;28;85504;-74
2022/03/17 04:16:46;;;;;;;37.28;26.75;;;10.40;99.90;;;;;;4961114;28;20042;-75
2022/03/17 04:19:15;;;;;;;36.53;26.45;;;10.40;99.90;;;;;;4969505;28;229901;-76
2022/03/17 04:21:42;;;;;;;38.33;29.50;;;10.30;99.90;;;;;;4932903;28;20042;-76
2022/03/17 04:24:09;;;;;;;38.35;29.30;;;10.20;99.90;;;;;;4987393;28;246612;-74
2022/03/17 04:26:35;;;;;;;40.38;29.65;;;10.20;99.90;;;;;;4958651;28;20038;-75
2022/03/17 04:29:01;;;;;;;39.03;30.17;;;10.10;99.90;;;;;;4966251;28;259402;-75
2022/03/17 04:31:29;;;;;;;40.58;29.95;;;10.00;99.90;;;;;;4962558;28;20476;-75
2022/03/17 04:33:56;;;;;;;43.03;29.47;;;10.00;99.90;;;;;;4969853;28;265621;-75
2022/03/17 04:36:22;;;;;;;42.85;32.22;;;10.00;99.90;;;;;;4941437;28;20513;-76
2022/03/17 04:38:49;;;;;;;44.63;33.17;;;9.90;99.90;;;;;;4984282;28;259966;-76
2022/03/17 04:41:17;;;;;;;47.85;33.70;;;9.90;99.90;;;;;;4935186;28;20057;-76
2022/03/17 04:43:43;;;;;;;44.40;30.85;;;9.80;99.90;;;;;;4990841;28;20042;-76
2022/03/17 04:46:09;;;;;;;45.97;33.97;;;9.80;99.90;;;;;;4913702;28;147134;-76
2022/03/17 04:48:37;;;;;;;49.85;36.20;;;9.80;99.90;;;;;;4994673;28;20054;-76
2022/03/17 04:51:05;;;;;;;46.03;34.13;;;9.80;99.90;;;;;;4947191;28;264736;-77
2022/03/17 04:53:32;;;;;;;53.45;37.90;;;9.70;99.90;;;;;;4996726;28;20058;-77
2022/03/17 04:55:59;;;;;;;52.47;36.15;;;9.70;99.90;;;;;;4953781;28;235418;-78
2022/03/17 04:58:27;;;;;;;57.40;39.58;;;9.70;99.90;;;;;;5001018;28;20058;-79
2022/03/17 05:00:53;;;;;;;52.72;36.90;;;9.60;99.90;;;;;;4967645;28;23791;-78
2022/03/17 05:03:20;;;;;;;54.92;38.97;;;9.60;99.90;;;;;;5014119;28;20064;-78
2022/03/17 05:05:48;;;;;;;57.88;38.50;;;9.60;99.90;;;;;;4937862;28;143798;-78
2022/03/17 05:08:14;;;;;;;58.83;39.38;;;9.60;99.90;;;;;;4994401;28;20066;-79
2022/03/17 05:10:41;;;;;;;31.98;22.63;;;9.60;99.90;;;;;;4938585;28;20088;-79
2022/03/17 05:13:09;;;;;;;25.30;15.68;;;9.50;99.90;;;;;;4967938;28;20050;-78
2022/03/17 05:15:36;;;;;;;15.15;9.38;;;9.40;99.90;;;;;;4943717;28;20548;-78
2022/03/17 05:18:05;;;;;;;16.77;9.95;;;9.10;99.90;;;;;;4985941;28;20058;-78
2022/03/17 05:20:31;;;;;;;14.73;8.77;;;8.90;99.90;;;;;;4951478;28;213093;-78
2022/03/17 05:22:57;;;;;;;14.18;8.88;;;8.80;99.90;;;;;;4980404;28;20062;-78
2022/03/17 05:25:23;;;;;;;14.52;8.75;;;8.60;99.90;;;;;;4935970;28;270039;-77
2022/03/17 05:27:50;;;;;;;14.25;8.52;;;8.50;99.90;;;;;;4984730;28;20510;-77
2022/03/17 05:30:18;;;;;;;13.95;8.57;;;8.40;99.90;;;;;;4944173;28;103594;-77
2022/03/17 05:32:45;;;;;;;14.57;8.85;;;8.30;99.90;;;;;;4980356;28;20057;-76
2022/03/17 05:35:14;;;;;;;13.52;8.75;;;8.30;99.90;;;;;;4918343;28;46459;-76
2022/03/17 05:37:40;;;;;;;15.13;8.95;;;8.30;99.90;;;;;;4978814;28;20557;-77
2022/03/17 05:40:15;;;;;;;12.93;7.65;;;8.30;99.90;;;;;;4951735;28;160343;-76
2022/03/17 05:42:43;;;;;;;15.35;9.20;;;8.20;99.90;;;;;;4991507;28;20058;-75
2022/03/17 05:45:10;;;;;;;20.80;10.45;;;8.20;99.90;;;;;;4935112;28;233735;-75
2022/03/17 05:47:38;;;;;;;22.92;11.30;;;8.10;99.90;;;;;;4975910;28;20068;-76
2022/03/17 05:50:06;;;;;;;22.92;11.35;;;8.10;99.90;;;;;;4930855;28;251977;-76
2022/03/17 05:52:32;;;;;;;25.70;12.73;;;8.00;99.90;;;;;;4964552;28;20046;-75
2022/03/17 05:54:58;;;;;;;23.25;11.85;;;8.10;99.90;;;;;;4955388;28;180723;-76
2022/03/17 05:57:24;;;;;;;24.40;12.80;;;8.00;99.90;;;;;;4971494;28;20417;-75
2022/03/17 05:59:51;;;;;;;27.95;12.57;;;8.00;99.90;;;;;;4925263;28;84758;-75
2022/03/17 06:02:17;;;;;;;27.73;13.02;;;8.00;99.90;;;;;;4990123;28;20057;-75
2022/03/17 06:04:43;;;;;;;23.63;12.18;;;8.00;99.90;;;;;;4910672;28;154238;-75
2022/03/17 06:07:10;;;;;;;26.08;12.15;;;8.00;99.90;;;;;;4976896;28;20050;-76
2022/03/17 06:09:38;;;;;;;21.90;12.20;;;8.00;99.90;;;;;;4961136;28;64233;-75
2022/03/17 06:12:06;;;;;;;25.67;11.48;;;7.90;99.90;;;;;;4977123;28;20061;-75
2022/03/17 06:14:32;;;;;;;24.25;11.95;;;7.90;99.90;;;;;;4940064;28;219525;-75
2022/03/17 06:16:59;;;;;;;21.63;11.13;;;7.90;99.90;;;;;;4971010;28;20069;-75
2022/03/17 06:19:26;;;;;;;25.35;10.82;;;7.90;99.90;;;;;;4966171;28;237022;-75
2022/03/17 06:21:52;;;;;;;24.35;11.48;;;7.90;99.90;;;;;;4966869;28;20054;-75
2022/03/17 06:24:18;;;;;;;22.38;9.82;;;7.90;99.90;;;;;;4950576;28;215792;-74
2022/03/17 06:26:45;;;;;;;23.65;9.82;;;7.90;99.90;;;;;;4973071;28;20388;-75
2022/03/17 06:29:11;;;;;;;19.25;8.63;;;7.90;99.90;;;;;;4971177;28;136613;-75
2022/03/17 06:31:38;;;;;;;24.17;8.80;;;7.90;99.90;;;;;;4947447;28;20510;-75
2022/03/17 06:34:04;;;;;;;20.33;8.00;;;7.90;99.90;;;;;;4952426;28;269917;-75
2022/03/17 06:36:30;;;;;;;22.88;8.13;;;7.90;99.90;;;;;;4961429;28;20042;-75
2022/03/17 06:38:56;;;;;;;22.55;7.80;;;7.90;99.90;;;;;;4978052;28;252939;-75
2022/03/17 06:41:22;;;;;;;25.88;8.20;;;7.80;99.90;;;;;;4953359;28;20046;-74
2022/03/17 06:43:48;;;;;;;20.83;7.32;;;7.80;99.90;;;;;;4978642;28;270471;-75
2022/03/17 06:46:14;;;;;;;20.50;7.20;;;7.80;99.90;;;;;;4949254;28;20049;-74
2022/03/17 06:48:40;;;;;;;25.80;7.07;;;7.80;99.90;;;;;;4977433;28;20352;-74
2022/03/17 06:51:07;;;;;;;18.55;6.35;;;7.80;99.90;;;;;;4945149;28;252482;-74
2022/03/17 06:53:33;;;;;;;20.63;5.88;;;7.80;99.90;;;;;;4976636;28;20050;-74
2022/03/17 06:55:59;;;;;;;15.35;4.90;;;7.70;99.90;;;;;;4930486;28;252291;-75
2022/03/17 06:58:25;;;;;;;15.77;4.13;;;7.70;99.90;;;;;;4982407;28;20051;-75
2022/03/17 07:00:51;;;;;;;16.58;4.38;;;7.70;99.90;;;;;;4933036;28;132589;-75
2022/03/17 07:03:17;;;;;;;17.05;3.20;;;7.70;99.90;;;;;;4974659;28;20059;-75
2022/03/17 07:05:43;;;;;;;18.63;3.80;;;7.70;99.90;;;;;;4905525;28;240253;-75
2022/03/17 07:08:09;;;;;;;13.70;3.20;;;7.70;99.90;;;;;;4981728;28;20058;-72
2022/03/17 07:10:35;;;;;;;15.45;3.20;;;7.70;99.90;;;;;;4936233;28;58385;-74
2022/03/17 07:13:02;;;;;;;16.55;3.30;;;7.70;99.90;;;;;;4952684;28;20549;-73
2022/03/17 07:15:29;;;;;;;12.32;2.63;;;7.80;99.90;;;;;;4947676;28;256458;-73
2022/03/17 07:17:55;;;;;;;14.57;3.08;;;7.70;99.90;;;;;;4973238;28;20069;-73
2022/03/17 07:20:21;;;;;;;12.15;2.78;;;7.70;99.90;;;;;;4943696;28;22740;-74
2022/03/17 07:22:49;;;;;;;14.68;3.13;;;7.80;99.90;;;;;;4974593;28;20054;-74
2022/03/17 07:25:17;;;;;;;14.18;3.00;;;7.80;99.90;;;;;;4951195;28;59781;-74
2022/03/17 07:27:45;;;;;;;15.23;3.05;;;7.80;99.90;;;;;;4985893;28;20507;-74
2022/03/17 07:30:19;;;;;;;15.18;2.60;;;7.80;99.90;;;;;;4935002;28;149717;-74
2022/03/17 07:32:48;;;;;;;16.38;2.80;;;7.80;99.90;;;;;;4978415;28;20065;-74
2022/03/17 07:35:15;;;;;;;16.48;2.60;;;7.80;99.90;;;;;;4931049;28;251910;-74
2022/03/17 07:37:42;;;;;;;13.90;2.45;;;7.80;99.90;;;;;;4969171;28;20054;-73
2022/03/17 07:40:09;;;;;;;13.32;2.17;;;7.90;99.90;;;;;;4927508;28;82094;-74
2022/03/17 07:42:35;;;;;;;15.77;2.20;;;7.80;99.90;;;;;;4973930;28;20046;-74
2022/03/17 07:45:02;;;;;;;17.67;3.03;;;7.90;99.90;;;;;;4939220;28;262620;-75
2022/03/17 07:47:28;;;;;;;12.80;2.05;;;7.80;99.90;;;;;;4966750;28;20050;-74
2022/03/17 07:49:54;;;;;;;13.65;2.15;;;7.80;99.90;;;;;;4934418;28;269318;-74
2022/03/17 07:52:20;;;;;;;11.88;1.70;;;7.80;99.90;;;;;;4966935;28;20058;-75
2022/03/17 07:54:47;;;;;;;13.90;2.10;;;7.70;99.90;;;;;;4927725;28;21232;-75
2022/03/17 07:57:14;;;;;;;17.17;2.28;;;7.70;99.90;;;;;;4950857;28;20210;-74
2022/03/17 07:59:40;;;;;;;17.80;2.05;;;7.70;99.90;;;;;;4933560;28;103207;-75
2022/03/17 08:02:06;;;;;;;15.80;2.53;;;7.70;99.90;;;;;;4961389;28;20474;-74
2022/03/17 08:04:33;;;;;;;19.40;2.35;;;7.70;99.90;;;;;;4938972;28;242543;-74
2022/03/17 08:07:00;;;;;;;17.75;2.40;;;7.70;99.90;;;;;;4969471;28;20057;-75
2022/03/17 08:09:27;;;;;;;14.55;2.38;;;7.70;99.90;;;;;;4969157;28;45779;-75
2022/03/17 08:11:54;;;;;;;17.35;2.47;;;7.80;99.90;;;;;;4995261;28;20050;-74
2022/03/17 08:14:20;;;;;;;16.77;2.30;;;7.70;99.90;;;;;;4966057;28;218590;-73
2022/03/17 08:16:46;;;;;;;17.02;2.30;;;7.70;99.90;;;;;;4990393;28;20061;-74
2022/03/17 08:19:12;;;;;;;18.27;2.38;;;7.70;99.90;;;;;;4967583;28;257939;-75
2022/03/17 08:21:39;;;;;;;23.58;2.88;;;7.70;99.90;;;;;;4957578;28;20046;-75
2022/03/17 08:24:06;;;;;;;15.93;2.42;;;7.70;99.90;;;;;;4982595;28;258687;-75
2022/03/17 08:26:34;;;;;;;16.77;2.20;;;7.70;99.90;;;;;;4938796;28;20464;-73
2022/03/17 08:29:01;;;;;;;19.27;2.53;;;7.70;99.90;;;;;;4966091;28;259378;-74
2022/03/17 08:31:28;;;;;;;18.25;2.72;;;7.70;99.90;;;;;;4934394;28;20047;-74
2022/03/17 08:33:56;;;;;;;20.02;2.45;;;7.70;99.90;;;;;;4966772;28;256184;-73
2022/03/17 08:36:25;;;;;;;23.13;2.80;;;7.80;99.90;;;;;;4953778;28;20049;-73
2022/03/17 08:38:52;;;;;;;21.10;3.10;;;7.80;99.90;;;;;;4969591;28;257178;-73
2022/03/17 08:41:19;;;;;;;24.38;2.72;;;7.80;99.90;;;;;;4958988;28;20046;-73
2022/03/17 08:43:46;;;;;;;23.40;2.88;;;7.80;99.90;;;;;;4988420;28;20058;-74
2022/03/17 08:51:41;;;;;;;17.58;2.55;;;7.80;99.90;;;;;;4935221;28;20527;-74
2022/03/17 08:54:07;;;;;;;19.00;2.70;;;7.80;99.90;;;;;;4962686;28;266953;-74
2022/03/17 08:56:34;;;;;;;15.73;2.08;;;7.80;99.90;;;;;;4936506;28;20064;-74
2022/03/17 08:59:00;;;;;;;17.33;2.60;;;7.80;99.90;;;;;;4952190;28;272072;-74
2022/03/17 09:01:26;;;;;;;21.92;2.83;;;7.70;99.90;;;;;;4941113;28;20420;-74
2022/03/17 09:03:53;;;;;;;20.88;2.38;;;7.70;99.90;;;;;;4951041;28;262721;-73
2022/03/17 09:06:19;;;;;;;18.00;2.67;;;7.70;99.90;;;;;;4960070;28;20057;-74
2022/03/17 09:08:45;;;;;;;19.67;2.53;;;7.90;99.90;;;;;;4984456;28;20503;-73
2022/03/17 09:11:13;;;;;;;22.30;2.92;;;8.00;99.90;;;;;;4962396;28;109250;-73
2022/03/17 09:13:40;;;;;;;19.55;2.80;;;8.00;99.90;;;;;;4968185;28;20046;-73
2022/03/17 09:16:06;;;;;;;18.70;2.63;;;8.10;99.90;;;;;;4944377;28;132214;-74
2022/03/17 09:18:33;;;;;;;19.98;3.20;;;8.20;99.90;;;;;;4985475;28;20403;-73
2022/03/17 09:21:00;;;;;;;21.42;2.88;;;8.20;99.90;;;;;;4933439;28;271055;-73
2022/03/17 09:23:29;;;;;;;18.88;2.50;;;8.10;99.90;;;;;;4997237;28;20058;-73
2022/03/17 09:25:56;;;;;;;17.38;2.42;;;8.10;99.90;;;;;;4955292;28;211830;-73
2022/03/17 09:28:22;;;;;;;15.90;2.47;;;8.00;99.90;;;;;;4977486;28;20283;-73
2022/03/17 09:30:52;;;;;;;17.88;2.40;;;8.00;99.90;;;;;;4950723;28;231256;-73
2022/03/17 09:33:18;;;;;;;20.88;2.50;;;8.00;99.90;;;;;;4981702;28;20061;-73
2022/03/17 09:35:44;;;;;;;20.08;2.70;;;8.00;99.90;;;;;;4923417;28;216545;-74
2022/03/17 09:38:10;;;;;;;17.40;2.17;;;8.00;99.90;;;;;;4977391;28;20317;-73
2022/03/17 09:40:38;;;;;;;16.60;2.78;;;8.10;99.90;;;;;;4933204;28;26499;-73
2022/03/17 09:43:22;;;;;;;15.98;2.20;;;8.10;99.90;;;;;;4975031;28;20081;-72
2022/03/17 09:45:52;;;;;;;18.55;2.65;;;8.20;99.90;;;;;;4937960;28;105396;-73
2022/03/17 09:48:20;;;;;;;19.25;2.50;;;8.30;99.90;;;;;;4982547;28;20054;-73
2022/03/17 09:50:50;;;;;;;18.08;2.20;;;8.50;99.90;;;;;;4946668;28;241962;-72
2022/03/17 09:53:16;;;;;;;17.10;2.40;;;8.80;99.90;;;;;;4979872;28;20054;-73
2022/03/17 09:55:43;;;;;;;22.80;2.35;;;8.90;99.90;;;;;;4961445;28;20470;-73
2022/03/17 09:58:10;;;;;;;14.45;2.25;;;8.90;99.90;;;;;;4984103;28;20166;-72
2022/03/17 10:00:48;;;;;;;16.83;2.30;;;8.90;99.90;;;;;;4923270;28;120651;-75
2022/03/17 10:03:27;;;;;;;16.02;1.90;;;9.10;99.90;;;;;;4973760;28;20042;-73
2022/03/17 10:05:55;;;;;;;17.42;2.40;;;9.10;99.90;;;;;;4947355;28;234090;-73
2022/03/17 10:08:23;;;;;;;16.77;2.08;;;9.60;99.90;;;;;;4983932;28;20065;-72
2022/03/17 10:10:52;;;;;;;22.70;2.40;;;9.50;99.90;;;;;;4945389;28;158178;-72
2022/03/17 10:13:21;;;;;;;14.88;2.00;;;10.10;99.90;;;;;;4977556;28;20042;-73
2022/03/17 10:16:05;;;;;;;17.45;2.40;;;10.20;99.90;;;;;;4941906;28;250241;-73
2022/03/17 10:18:36;;;;;;;14.32;2.05;;;10.20;99.90;;;;;;4979841;28;20057;-72
2022/03/17 10:21:09;;;;;;;23.20;2.97;;;10.10;99.90;;;;;;4939688;28;201897;-75
2022/03/17 10:23:47;;;;;;;19.40;2.80;;;10.10;99.90;;;;;;4976613;28;20485;-73
2022/03/17 10:26:30;;;;;;;16.92;2.15;;;11.00;99.90;;;;;;4925142;28;20062;-73
2022/03/17 10:29:16;;;;;;;14.43;2.40;;;11.80;99.90;;;;;;4962762;28;272963;-74
2022/03/17 10:32:05;;;;;;;17.92;2.53;;;11.40;99.90;;;;;;4953198;28;20381;-74
2022/03/17 10:34:33;;;;;;;13.68;2.25;;;10.90;99.90;;;;;;4942585;28;32383;-73
2022/03/17 10:37:15;;;;;;;14.73;2.20;;;10.90;99.90;;;;;;4982616;28;20460;-74
2022/03/17 10:39:46;;;;;;;18.73;2.20;;;11.10;99.90;;;;;;4961486;28;23127;-74
2022/03/17 10:42:15;;;;;;;16.75;2.38;;;10.80;99.90;;;;;;4976560;28;20571;-74
2022/03/17 10:44:49;;;;;;;17.25;2.28;;;10.40;99.90;;;;;;4943084;28;263778;-74
2022/03/17 10:47:22;;;;;;;10.65;1.80;;;10.20;99.90;;;;;;4989005;28;20058;-74
2022/03/17 10:50:07;;;;;;;18.00;2.58;;;10.30;99.90;;;;;;4937918;28;23684;-73
2022/03/17 10:52:47;;;;;;;12.57;2.17;;;10.80;99.90;;;;;;4969961;28;20051;-73
2022/03/17 10:55:15;;;;;;;15.52;2.33;;;11.30;99.30;;;;;;4942247;28;86636;-74
2022/03/17 10:57:41;;;;;;;12.95;2.30;;;11.50;98.00;;;;;;4972292;28;20062;-73
2022/03/17 11:00:21;;;;;;;12.95;2.42;;;11.80;98.00;;;;;;4946693;28;64790;-74
2022/03/17 11:02:57;;;;;;;15.73;2.53;;;12.00;97.90;;;;;;4974945;28;20565;-72
2022/03/17 11:05:24;;;;;;;16.45;2.88;;;11.40;98.40;;;;;;4923126;28;251568;-73
2022/03/17 11:07:53;;;;;;;15.77;2.78;;;11.60;98.60;;;;;;4980800;28;20277;-73
2022/03/17 11:10:22;;;;;;;14.20;2.45;;;11.40;99.00;;;;;;4943205;28;272800;-74
2022/03/17 11:12:50;;;;;;;14.90;2.55;;;11.20;98.70;;;;;;4991039;28;20062;-74
2022/03/17 11:15:29;;;;;;;12.65;2.20;;;11.60;97.20;;;;;;4909597;28;66953;-73
2022/03/17 11:18:02;;;;;;;17.42;3.08;;;11.30;98.60;;;;;;4970266;28;20055;-74
2022/03/17 11:20:29;;;;;;;17.65;2.30;;;11.40;98.20;;;;;;4951692;28;119805;-73
2022/03/17 11:23:09;;;;;;;17.73;2.72;;;11.50;99.30;;;;;;4985101;28;20057;-72
2022/03/17 11:25:36;;;;;;;16.70;2.42;;;12.20;97.20;;;;;;4933390;28;275497;-73
2022/03/17 11:28:04;;;;;;;16.38;2.53;;;13.00;96.60;;;;;;4979232;28;20061;-73
2022/03/17 11:30:44;;;;;;;16.42;2.40;;;13.30;94.10;;;;;;4950938;28;270008;-74
2022/03/17 11:33:22;;;;;;;15.20;2.83;;;13.00;93.90;;;;;;4979484;28;20058;-73
2022/03/17 11:36:00;;;;;;;13.18;2.58;;;13.10;92.40;;;;;;4952895;28;268907;-72
2022/03/17 11:38:32;;;;;;;17.90;2.85;;;13.00;91.50;;;;;;4981791;28;20047;-73
2022/03/17 11:41:08;;;;;;;16.20;2.83;;;12.70;93.20;;;;;;4918645;28;174532;-74
2022/03/17 11:43:58;;;;;;;12.52;2.22;;;12.30;94.00;;;;;;4980208;28;20407;-72
2022/03/17 11:46:36;;;;;;;15.63;2.63;;;12.30;94.40;;;;;;4960645;28;20037;-71
2022/03/17 11:49:17;;;;;;;22.67;2.97;;;11.80;95.20;;;;;;4995622;28;256547;-72
2022/03/17 11:51:53;;;;;;;;;;;12.60;96.50;;;;;;4960565;28;20047;-75
2022/03/17 11:54:19;;;;;;;10.20;2.22;;;13.30;93.10;;;;;;4979438;28;68740;-75
2022/03/17 11:56:46;;;;;;;12.20;2.53;;;13.60;89.80;;;;;;4988230;28;20039;-75
2022/03/17 11:59:19;;;;;;;13.00;2.22;;;13.40;87.80;;;;;;4965594;28;177258;-75
2022/03/17 12:01:49;;;;;;;14.68;2.53;;;13.40;86.10;;;;;;4955660;28;20096;-74
2022/03/17 12:04:32;;;;;;;27.65;3.40;;;12.60;86.90;;;;;;4959940;28;153637;-74
2022/03/17 12:07:13;;;;;;;28.17;4.47;;;13.10;88.90;;;;;;4954660;28;20052;-74
2022/03/17 12:09:40;;;;;;;39.70;4.50;;;13.70;86.00;;;;;;4940744;28;256321;-74
2022/03/17 12:12:22;;;;;;;17.75;2.67;;;14.10;84.60;;;;;;4994204;28;20054;-75
2022/03/17 12:14:59;;;;;;;18.05;2.88;;;14.20;84.50;;;;;;4949686;28;154973;-75
2022/03/17 12:17:27;;;;;;;13.68;2.50;;;13.70;85.70;;;;;;4982584;28;20046;-74
2022/03/17 12:20:05;;;;;;;12.50;2.65;;;14.30;83.10;;;;;;4947576;28;252336;-74
2022/03/17 12:22:31;;;;;;;13.27;2.38;;;14.50;79.50;;;;;;4994806;28;20619;-74
2022/03/17 12:25:16;;;;;;;13.55;2.38;;;14.40;80.20;;;;;;4936870;28;171140;-74
2022/03/17 12:27:43;;;;;;;10.82;2.00;;;14.20;76.30;;;;;;4985989;28;20057;-73
2022/03/17 12:30:17;;;;;;;16.80;2.83;;;14.20;77.50;;;;;;4941101;28;271412;-74
2022/03/17 12:32:54;;;;;;;13.35;2.55;;;14.10;77.60;;;;;;4973950;28;20046;-73
2022/03/17 12:35:22;;;;;;;11.93;2.08;;;13.90;76.70;;;;;;4948699;28;196359;-74
2022/03/17 12:37:49;;;;;;;14.55;2.08;;;14.10;76.60;;;;;;4973357;28;20195;-75
2022/03/17 12:40:20;;;;;;;13.13;2.42;;;14.20;76.00;;;;;;4951148;28;264989;-74
2022/03/17 12:42:48;;;;;;;17.40;2.28;;;14.50;78.10;;;;;;4996997;28;20046;-74
2022/03/17 12:45:16;;;;;;;10.55;2.10;;;13.70;76.80;;;;;;4938537;28;241567;-74
2022/03/17 12:47:48;;;;;;;13.15;2.42;;;14.20;73.10;;;;;;4976200;28;20073;-74
2022/03/17 12:50:18;;;;;;;12.50;2.38;;;14.60;75.20;;;;;;4950403;28;248213;-74
2022/03/17 12:52:47;;;;;;;12.95;2.58;;;14.50;74.30;;;;;;4963568;28;20042;-74
2022/03/17 12:55:15;;;;;;;12.13;2.05;;;14.40;77.00;;;;;;4950964;28;101960;-75